sensor_id;sensor_type;location;lat;lon;timestamp;P1;durP1;ratioP1;P2;durP2;ratioP2
22963;SDS011;11648;49.306;6.934;2023-07-20T00:00:30;4.50;;;1.90;;
22963;SDS011;11648;49.306;6.934;2023-07-20T00:03:13;3.30;;;1.60;;
22963;SDS011;11648;49.306;6.934;2023-07-20T00:05:43;2.57;;;1.43;;
22963;SDS011;11648;49.306;6.934;2023-07-20T00:08:11;4.87;;;1.63;;
22963;SDS011;11648;49.306;6.934;2023-07-20T00:10:38;7.03;;;2.10;;
22963;SDS011;11648;49.306;6.934;2023-07-20T00:13:04;3.83;;;1.80;;
22963;SDS011;11648;49.306;6.934;2023-07-20T00:15:32;2.87;;;1.60;;
22963;SDS011;11648;49.306;6.934;2023-07-20T00:17:59;3.93;;;2.00;;
22963;SDS011;11648;49.306;6.934;2023-07-20T00:20:25;4.07;;;1.93;;
22963;SDS011;11648;49.306;6.934;2023-07-20T00:22:52;3.50;;;1.67;;
22963;SDS011;11648;49.306;6.934;2023-07-20T00:25:21;4.07;;;1.70;;
22963;SDS011;11648;49.306;6.934;2023-07-20T00:27:48;6.17;;;2.00;;
22963;SDS011;11648;49.306;6.934;2023-07-20T00:30:15;4.23;;;1.90;;
22963;SDS011;11648;49.306;6.934;2023-07-20T00:32:43;4.83;;;2.00;;
22963;SDS011;11648;49.306;6.934;2023-07-20T00:35:10;3.47;;;2.00;;
22963;SDS011;11648;49.306;6.934;2023-07-20T00:37:38;4.27;;;1.80;;
22963;SDS011;11648;49.306;6.934;2023-07-20T00:40:05;3.77;;;2.13;;
22963;SDS011;11648;49.306;6.934;2023-07-20T00:42:35;4.43;;;2.23;;
22963;SDS011;11648;49.306;6.934;2023-07-20T00:45:02;6.00;;;2.00;;
22963;SDS011;11648;49.306;6.934;2023-07-20T00:47:29;4.97;;;2.00;;
22963;SDS011;11648;49.306;6.934;2023-07-20T00:49:58;3.83;;;2.27;;
22963;SDS011;11648;49.306;6.934;2023-07-20T00:52:25;3.50;;;1.93;;
22963;SDS011;11648;49.306;6.934;2023-07-20T00:54:54;6.30;;;2.10;;
22963;SDS011;11648;49.306;6.934;2023-07-20T00:57:22;3.37;;;1.80;;
22963;SDS011;11648;49.306;6.934;2023-07-20T00:59:51;3.47;;;1.90;;
22963;SDS011;11648;49.306;6.934;2023-07-20T01:02:18;3.57;;;2.23;;
22963;SDS011;11648;49.306;6.934;2023-07-20T01:04:45;3.50;;;2.00;;
22963;SDS011;11648;49.306;6.934;2023-07-20T01:07:32;4.03;;;1.60;;
22963;SDS011;11648;49.306;6.934;2023-07-20T01:10:25;4.77;;;2.10;;
22963;SDS011;11648;49.306;6.934;2023-07-20T01:12:59;4.23;;;2.13;;
22963;SDS011;11648;49.306;6.934;2023-07-20T01:15:27;3.50;;;1.97;;
22963;SDS011;11648;49.306;6.934;2023-07-20T01:17:54;4.20;;;1.80;;
22963;SDS011;11648;49.306;6.934;2023-07-20T01:20:21;3.53;;;1.77;;
22963;SDS011;11648;49.306;6.934;2023-07-20T01:31:32;4.00;;;2.10;;
22963;SDS011;11648;49.306;6.934;2023-07-20T01:34:01;4.23;;;1.90;;
22963;SDS011;11648;49.306;6.934;2023-07-20T01:36:33;4.33;;;2.27;;
22963;SDS011;11648;49.306;6.934;2023-07-20T01:39:01;3.40;;;1.77;;
22963;SDS011;11648;49.306;6.934;2023-07-20T01:41:29;5.10;;;2.07;;
22963;SDS011;11648;49.306;6.934;2023-07-20T01:43:58;4.60;;;1.77;;
22963;SDS011;11648;49.306;6.934;2023-07-20T01:46:28;4.03;;;1.90;;
22963;SDS011;11648;49.306;6.934;2023-07-20T01:48:55;3.47;;;1.87;;
22963;SDS011;11648;49.306;6.934;2023-07-20T01:51:22;3.47;;;1.70;;
22963;SDS011;11648;49.306;6.934;2023-07-20T01:53:49;3.70;;;2.00;;
22963;SDS011;11648;49.306;6.934;2023-07-20T01:56:16;4.63;;;1.90;;
22963;SDS011;11648;49.306;6.934;2023-07-20T01:58:43;4.40;;;2.00;;
22963;SDS011;11648;49.306;6.934;2023-07-20T02:01:10;3.33;;;1.70;;
22963;SDS011;11648;49.306;6.934;2023-07-20T02:03:37;5.03;;;1.90;;
22963;SDS011;11648;49.306;6.934;2023-07-20T02:06:03;4.20;;;2.00;;
22963;SDS011;11648;49.306;6.934;2023-07-20T02:08:30;3.80;;;1.80;;
22963;SDS011;11648;49.306;6.934;2023-07-20T02:10:57;3.20;;;1.70;;
22963;SDS011;11648;49.306;6.934;2023-07-20T02:13:24;3.63;;;1.90;;
22963;SDS011;11648;49.306;6.934;2023-07-20T02:15:50;4.17;;;2.17;;
22963;SDS011;11648;49.306;6.934;2023-07-20T02:18:17;4.27;;;1.83;;
22963;SDS011;11648;49.306;6.934;2023-07-20T02:20:44;4.93;;;2.07;;
22963;SDS011;11648;49.306;6.934;2023-07-20T02:23:11;5.00;;;1.90;;
22963;SDS011;11648;49.306;6.934;2023-07-20T02:25:38;2.50;;;1.50;;
22963;SDS011;11648;49.306;6.934;2023-07-20T02:28:07;4.30;;;2.20;;
22963;SDS011;11648;49.306;6.934;2023-07-20T02:30:37;4.07;;;2.10;;
22963;SDS011;11648;49.306;6.934;2023-07-20T02:33:05;4.10;;;2.10;;
22963;SDS011;11648;49.306;6.934;2023-07-20T02:35:33;4.80;;;2.20;;
22963;SDS011;11648;49.306;6.934;2023-07-20T02:38:00;4.63;;;2.00;;
22963;SDS011;11648;49.306;6.934;2023-07-20T02:40:26;6.57;;;2.40;;
22963;SDS011;11648;49.306;6.934;2023-07-20T02:42:54;6.60;;;2.40;;
22963;SDS011;11648;49.306;6.934;2023-07-20T02:45:20;5.30;;;2.27;;
22963;SDS011;11648;49.306;6.934;2023-07-20T02:47:47;5.47;;;2.30;;
22963;SDS011;11648;49.306;6.934;2023-07-20T02:50:14;4.97;;;2.10;;
22963;SDS011;11648;49.306;6.934;2023-07-20T02:52:41;4.77;;;2.10;;
22963;SDS011;11648;49.306;6.934;2023-07-20T02:55:08;6.43;;;2.47;;
22963;SDS011;11648;49.306;6.934;2023-07-20T02:57:35;6.80;;;2.57;;
22963;SDS011;11648;49.306;6.934;2023-07-20T03:00:02;4.20;;;2.17;;
22963;SDS011;11648;49.306;6.934;2023-07-20T03:02:32;5.00;;;2.27;;
22963;SDS011;11648;49.306;6.934;2023-07-20T03:04:59;5.53;;;2.40;;
22963;SDS011;11648;49.306;6.934;2023-07-20T03:07:29;4.20;;;2.13;;
22963;SDS011;11648;49.306;6.934;2023-07-20T03:09:55;7.23;;;2.37;;
22963;SDS011;11648;49.306;6.934;2023-07-20T03:12:22;5.33;;;2.40;;
22963;SDS011;11648;49.306;6.934;2023-07-20T03:14:53;5.47;;;2.40;;
22963;SDS011;11648;49.306;6.934;2023-07-20T03:17:20;6.00;;;1.80;;
22963;SDS011;11648;49.306;6.934;2023-07-20T03:19:47;4.97;;;2.33;;
22963;SDS011;11648;49.306;6.934;2023-07-20T03:22:14;4.43;;;2.43;;
22963;SDS011;11648;49.306;6.934;2023-07-20T03:24:40;4.30;;;2.30;;
22963;SDS011;11648;49.306;6.934;2023-07-20T03:27:07;3.60;;;1.90;;
22963;SDS011;11648;49.306;6.934;2023-07-20T03:29:34;5.53;;;2.23;;
22963;SDS011;11648;49.306;6.934;2023-07-20T03:32:01;3.97;;;2.10;;
22963;SDS011;11648;49.306;6.934;2023-07-20T03:34:28;4.13;;;2.10;;
22963;SDS011;11648;49.306;6.934;2023-07-20T03:36:55;6.40;;;2.37;;
22963;SDS011;11648;49.306;6.934;2023-07-20T03:39:22;3.87;;;2.00;;
22963;SDS011;11648;49.306;6.934;2023-07-20T03:41:49;7.47;;;2.30;;
22963;SDS011;11648;49.306;6.934;2023-07-20T03:44:16;5.53;;;2.30;;
22963;SDS011;11648;49.306;6.934;2023-07-20T03:46:43;6.73;;;2.40;;
22963;SDS011;11648;49.306;6.934;2023-07-20T03:49:10;3.70;;;2.03;;
22963;SDS011;11648;49.306;6.934;2023-07-20T03:51:37;4.37;;;1.93;;
22963;SDS011;11648;49.306;6.934;2023-07-20T03:54:04;3.87;;;2.17;;
22963;SDS011;11648;49.306;6.934;2023-07-20T03:56:31;4.57;;;2.07;;
22963;SDS011;11648;49.306;6.934;2023-07-20T03:59:02;3.53;;;2.10;;
22963;SDS011;11648;49.306;6.934;2023-07-20T04:01:28;3.77;;;2.20;;
22963;SDS011;11648;49.306;6.934;2023-07-20T04:03:55;3.73;;;2.10;;
22963;SDS011;11648;49.306;6.934;2023-07-20T04:06:22;4.80;;;2.50;;
22963;SDS011;11648;49.306;6.934;2023-07-20T04:08:50;4.53;;;2.23;;
22963;SDS011;11648;49.306;6.934;2023-07-20T04:11:16;6.10;;;2.23;;
22963;SDS011;11648;49.306;6.934;2023-07-20T04:13:43;4.23;;;2.10;;
22963;SDS011;11648;49.306;6.934;2023-07-20T04:16:10;4.57;;;2.20;;
22963;SDS011;11648;49.306;6.934;2023-07-20T04:18:37;7.17;;;2.37;;
22963;SDS011;11648;49.306;6.934;2023-07-20T04:21:04;4.30;;;2.30;;
22963;SDS011;11648;49.306;6.934;2023-07-20T04:23:31;3.50;;;2.10;;
22963;SDS011;11648;49.306;6.934;2023-07-20T04:25:57;3.37;;;2.00;;
22963;SDS011;11648;49.306;6.934;2023-07-20T04:28:24;4.43;;;2.00;;
22963;SDS011;11648;49.306;6.934;2023-07-20T04:30:52;4.10;;;2.30;;
22963;SDS011;11648;49.306;6.934;2023-07-20T04:33:21;3.70;;;1.90;;
22963;SDS011;11648;49.306;6.934;2023-07-20T04:35:48;5.77;;;2.40;;
22963;SDS011;11648;49.306;6.934;2023-07-20T04:38:19;5.50;;;2.07;;
22963;SDS011;11648;49.306;6.934;2023-07-20T04:40:54;4.63;;;2.40;;
22963;SDS011;11648;49.306;6.934;2023-07-20T04:43:21;4.27;;;2.20;;
22963;SDS011;11648;49.306;6.934;2023-07-20T04:45:48;5.80;;;2.30;;
22963;SDS011;11648;49.306;6.934;2023-07-20T04:48:15;4.93;;;2.10;;
22963;SDS011;11648;49.306;6.934;2023-07-20T04:50:51;4.10;;;2.53;;
22963;SDS011;11648;49.306;6.934;2023-07-20T04:53:17;3.33;;;2.13;;
22963;SDS011;11648;49.306;6.934;2023-07-20T04:55:48;4.23;;;2.40;;
22963;SDS011;11648;49.306;6.934;2023-07-20T04:58:20;5.83;;;2.40;;
22963;SDS011;11648;49.306;6.934;2023-07-20T05:00:50;4.50;;;2.47;;
22963;SDS011;11648;49.306;6.934;2023-07-20T05:03:18;4.53;;;2.50;;
22963;SDS011;11648;49.306;6.934;2023-07-20T05:05:46;5.47;;;2.50;;
22963;SDS011;11648;49.306;6.934;2023-07-20T05:08:15;5.53;;;2.80;;
22963;SDS011;11648;49.306;6.934;2023-07-20T05:10:43;3.37;;;1.83;;
22963;SDS011;11648;49.306;6.934;2023-07-20T05:13:09;4.27;;;2.30;;
22963;SDS011;11648;49.306;6.934;2023-07-20T05:15:36;6.23;;;2.60;;
22963;SDS011;11648;49.306;6.934;2023-07-20T05:18:04;6.00;;;2.60;;
22963;SDS011;11648;49.306;6.934;2023-07-20T05:20:31;4.07;;;2.30;;
22963;SDS011;11648;49.306;6.934;2023-07-20T05:22:59;5.70;;;2.40;;
22963;SDS011;11648;49.306;6.934;2023-07-20T05:25:27;5.80;;;2.70;;
22963;SDS011;11648;49.306;6.934;2023-07-20T05:27:57;5.10;;;2.50;;
22963;SDS011;11648;49.306;6.934;2023-07-20T05:30:23;4.63;;;2.30;;
22963;SDS011;11648;49.306;6.934;2023-07-20T05:32:50;7.03;;;3.20;;
22963;SDS011;11648;49.306;6.934;2023-07-20T05:35:19;6.03;;;2.77;;
22963;SDS011;11648;49.306;6.934;2023-07-20T05:37:46;5.17;;;2.47;;
22963;SDS011;11648;49.306;6.934;2023-07-20T05:40:14;4.23;;;2.13;;
22963;SDS011;11648;49.306;6.934;2023-07-20T05:42:45;7.50;;;2.47;;
22963;SDS011;11648;49.306;6.934;2023-07-20T05:45:12;4.37;;;2.23;;
22963;SDS011;11648;49.306;6.934;2023-07-20T05:47:39;5.53;;;2.07;;
22963;SDS011;11648;49.306;6.934;2023-07-20T05:50:07;5.13;;;2.10;;
22963;SDS011;11648;49.306;6.934;2023-07-20T05:52:35;7.57;;;2.07;;
22963;SDS011;11648;49.306;6.934;2023-07-20T05:55:02;5.27;;;2.00;;
22963;SDS011;11648;49.306;6.934;2023-07-20T05:57:29;5.20;;;2.10;;
22963;SDS011;11648;49.306;6.934;2023-07-20T05:59:56;5.00;;;2.10;;
22963;SDS011;11648;49.306;6.934;2023-07-20T06:02:23;4.37;;;2.10;;
22963;SDS011;11648;49.306;6.934;2023-07-20T06:04:50;5.73;;;2.40;;
22963;SDS011;11648;49.306;6.934;2023-07-20T06:07:16;5.10;;;2.10;;
22963;SDS011;11648;49.306;6.934;2023-07-20T06:09:43;3.20;;;2.20;;
22963;SDS011;11648;49.306;6.934;2023-07-20T06:12:10;5.90;;;2.07;;
22963;SDS011;11648;49.306;6.934;2023-07-20T06:14:37;5.17;;;2.20;;
22963;SDS011;11648;49.306;6.934;2023-07-20T06:17:04;5.87;;;2.17;;
22963;SDS011;11648;49.306;6.934;2023-07-20T06:19:31;3.37;;;2.00;;
22963;SDS011;11648;49.306;6.934;2023-07-20T06:21:58;5.67;;;2.40;;
22963;SDS011;11648;49.306;6.934;2023-07-20T06:24:25;4.20;;;1.90;;
22963;SDS011;11648;49.306;6.934;2023-07-20T06:26:51;5.53;;;1.97;;
22963;SDS011;11648;49.306;6.934;2023-07-20T06:29:18;4.03;;;2.10;;
22963;SDS011;11648;49.306;6.934;2023-07-20T06:31:45;4.07;;;1.90;;
22963;SDS011;11648;49.306;6.934;2023-07-20T06:34:12;4.47;;;2.00;;
22963;SDS011;11648;49.306;6.934;2023-07-20T06:36:39;5.70;;;2.40;;
22963;SDS011;11648;49.306;6.934;2023-07-20T06:39:05;4.70;;;2.30;;
22963;SDS011;11648;49.306;6.934;2023-07-20T06:41:35;4.53;;;1.80;;
22963;SDS011;11648;49.306;6.934;2023-07-20T06:44:05;4.47;;;2.03;;
22963;SDS011;11648;49.306;6.934;2023-07-20T06:46:31;4.27;;;1.93;;
22963;SDS011;11648;49.306;6.934;2023-07-20T06:48:58;4.43;;;2.13;;
22963;SDS011;11648;49.306;6.934;2023-07-20T06:51:28;5.47;;;2.30;;
22963;SDS011;11648;49.306;6.934;2023-07-20T06:53:55;5.40;;;2.00;;
22963;SDS011;11648;49.306;6.934;2023-07-20T06:56:22;5.70;;;2.10;;
22963;SDS011;11648;49.306;6.934;2023-07-20T06:58:51;4.50;;;1.90;;
22963;SDS011;11648;49.306;6.934;2023-07-20T07:01:18;3.47;;;1.50;;
22963;SDS011;11648;49.306;6.934;2023-07-20T07:03:47;5.50;;;1.63;;
22963;SDS011;11648;49.306;6.934;2023-07-20T07:06:18;5.23;;;1.90;;
22963;SDS011;11648;49.306;6.934;2023-07-20T07:08:45;3.97;;;1.60;;
22963;SDS011;11648;49.306;6.934;2023-07-20T07:11:12;5.27;;;1.77;;
22963;SDS011;11648;49.306;6.934;2023-07-20T07:13:39;3.50;;;1.80;;
22963;SDS011;11648;49.306;6.934;2023-07-20T07:16:05;5.33;;;1.83;;
22963;SDS011;11648;49.306;6.934;2023-07-20T07:18:35;3.97;;;1.60;;
22963;SDS011;11648;49.306;6.934;2023-07-20T07:21:02;3.50;;;1.67;;
22963;SDS011;11648;49.306;6.934;2023-07-20T07:23:29;5.13;;;1.80;;
22963;SDS011;11648;49.306;6.934;2023-07-20T07:25:56;3.87;;;1.67;;
22963;SDS011;11648;49.306;6.934;2023-07-20T07:28:22;3.77;;;1.70;;
22963;SDS011;11648;49.306;6.934;2023-07-20T07:30:49;3.93;;;1.73;;
22963;SDS011;11648;49.306;6.934;2023-07-20T07:33:16;4.70;;;1.87;;
22963;SDS011;11648;49.306;6.934;2023-07-20T07:35:43;4.17;;;1.60;;
22963;SDS011;11648;49.306;6.934;2023-07-20T07:38:09;3.90;;;1.87;;
22963;SDS011;11648;49.306;6.934;2023-07-20T07:40:57;4.13;;;1.90;;
22963;SDS011;11648;49.306;6.934;2023-07-20T07:43:24;4.87;;;1.67;;
22963;SDS011;11648;49.306;6.934;2023-07-20T07:45:53;3.47;;;1.90;;
22963;SDS011;11648;49.306;6.934;2023-07-20T07:48:21;4.03;;;1.45;;
22963;SDS011;11648;49.306;6.934;2023-07-20T07:50:48;3.35;;;1.75;;
22963;SDS011;11648;49.306;6.934;2023-07-20T07:53:16;4.38;;;1.73;;
22963;SDS011;11648;49.306;6.934;2023-07-20T07:55:43;5.67;;;1.73;;
22963;SDS011;11648;49.306;6.934;2023-07-20T07:58:10;3.77;;;1.60;;
22963;SDS011;11648;49.306;6.934;2023-07-20T08:00:36;4.10;;;1.38;;
22963;SDS011;11648;49.306;6.934;2023-07-20T08:03:03;6.30;;;2.13;;
22963;SDS011;11648;49.306;6.934;2023-07-20T08:05:30;4.13;;;1.97;;
22963;SDS011;11648;49.306;6.934;2023-07-20T08:07:57;3.72;;;1.73;;
22963;SDS011;11648;49.306;6.934;2023-07-20T08:10:23;4.28;;;1.85;;
22963;SDS011;11648;49.306;6.934;2023-07-20T08:12:50;4.03;;;1.70;;
22963;SDS011;11648;49.306;6.934;2023-07-20T08:15:17;3.95;;;1.85;;
22963;SDS011;11648;49.306;6.934;2023-07-20T08:17:44;4.25;;;1.70;;
22963;SDS011;11648;49.306;6.934;2023-07-20T08:20:12;4.55;;;2.13;;
22963;SDS011;11648;49.306;6.934;2023-07-20T08:22:40;4.03;;;1.83;;
22963;SDS011;11648;49.306;6.934;2023-07-20T08:25:07;3.50;;;1.85;;
22963;SDS011;11648;49.306;6.934;2023-07-20T08:27:34;7.13;;;2.20;;
22963;SDS011;11648;49.306;6.934;2023-07-20T08:30:02;3.83;;;1.80;;
22963;SDS011;11648;49.306;6.934;2023-07-20T08:32:30;3.30;;;1.80;;
22963;SDS011;11648;49.306;6.934;2023-07-20T08:34:57;4.60;;;2.05;;
22963;SDS011;11648;49.306;6.934;2023-07-20T08:37:24;4.15;;;2.20;;
22963;SDS011;11648;49.306;6.934;2023-07-20T08:39:51;4.57;;;1.63;;
22963;SDS011;11648;49.306;6.934;2023-07-20T08:42:17;3.13;;;1.60;;
22963;SDS011;11648;49.306;6.934;2023-07-20T08:44:44;2.55;;;1.60;;
22963;SDS011;11648;49.306;6.934;2023-07-20T08:47:12;2.75;;;1.40;;
22963;SDS011;11648;49.306;6.934;2023-07-20T08:49:42;4.47;;;1.70;;
22963;SDS011;11648;49.306;6.934;2023-07-20T08:52:09;3.88;;;1.40;;
22963;SDS011;11648;49.306;6.934;2023-07-20T08:54:36;5.60;;;1.58;;
22963;SDS011;11648;49.306;6.934;2023-07-20T08:57:04;3.25;;;1.77;;
22963;SDS011;11648;49.306;6.934;2023-07-20T08:59:31;4.72;;;1.60;;
22963;SDS011;11648;49.306;6.934;2023-07-20T09:01:59;3.80;;;1.83;;
22963;SDS011;11648;49.306;6.934;2023-07-20T09:04:26;2.88;;;1.58;;
22963;SDS011;11648;49.306;6.934;2023-07-20T09:06:53;4.80;;;1.70;;
22963;SDS011;11648;49.306;6.934;2023-07-20T09:09:20;2.80;;;1.48;;
22963;SDS011;11648;49.306;6.934;2023-07-20T09:11:48;3.47;;;1.60;;
22963;SDS011;11648;49.306;6.934;2023-07-20T09:14:15;4.72;;;1.58;;
22963;SDS011;11648;49.306;6.934;2023-07-20T09:16:46;3.67;;;1.63;;
22963;SDS011;11648;49.306;6.934;2023-07-20T09:19:17;2.97;;;1.25;;
22963;SDS011;11648;49.306;6.934;2023-07-20T09:21:45;4.75;;;1.65;;
22963;SDS011;11648;49.306;6.934;2023-07-20T09:24:13;4.25;;;1.50;;
22963;SDS011;11648;49.306;6.934;2023-07-20T09:26:42;4.43;;;1.70;;
22963;SDS011;11648;49.306;6.934;2023-07-20T09:29:11;3.80;;;1.65;;
22963;SDS011;11648;49.306;6.934;2023-07-20T09:31:38;3.65;;;1.52;;
22963;SDS011;11648;49.306;6.934;2023-07-20T09:34:07;4.50;;;1.75;;
22963;SDS011;11648;49.306;6.934;2023-07-20T09:36:35;3.95;;;1.40;;
22963;SDS011;11648;49.306;6.934;2023-07-20T09:39:05;3.20;;;1.30;;
22963;SDS011;11648;49.306;6.934;2023-07-20T09:41:41;3.42;;;1.52;;
22963;SDS011;11648;49.306;6.934;2023-07-20T09:44:12;3.08;;;1.65;;
22963;SDS011;11648;49.306;6.934;2023-07-20T09:46:45;4.07;;;1.50;;
22963;SDS011;11648;49.306;6.934;2023-07-20T09:49:16;3.75;;;1.50;;
22963;SDS011;11648;49.306;6.934;2023-07-20T09:51:47;2.50;;;1.27;;
22963;SDS011;11648;49.306;6.934;2023-07-20T09:54:15;3.05;;;1.23;;
22963;SDS011;11648;49.306;6.934;2023-07-20T09:56:42;3.70;;;1.40;;
22963;SDS011;11648;49.306;6.934;2023-07-20T09:59:10;5.63;;;1.63;;
22963;SDS011;11648;49.306;6.934;2023-07-20T10:01:37;4.53;;;1.20;;
22963;SDS011;11648;49.306;6.934;2023-07-20T10:04:08;3.15;;;1.30;;
22963;SDS011;11648;49.306;6.934;2023-07-20T10:06:36;3.05;;;1.13;;
22963;SDS011;11648;49.306;6.934;2023-07-20T10:09:08;2.17;;;0.90;;
22963;SDS011;11648;49.306;6.934;2023-07-20T10:11:37;3.97;;;1.08;;
22963;SDS011;11648;49.306;6.934;2023-07-20T10:14:09;2.40;;;1.17;;
22963;SDS011;11648;49.306;6.934;2023-07-20T10:16:43;2.75;;;1.10;;
22963;SDS011;11648;49.306;6.934;2023-07-20T10:19:42;2.05;;;1.02;;
22963;SDS011;11648;49.306;6.934;2023-07-20T10:22:18;1.60;;;1.00;;
22963;SDS011;11648;49.306;6.934;2023-07-20T10:24:49;1.80;;;0.90;;
22963;SDS011;11648;49.306;6.934;2023-07-20T10:27:20;2.47;;;0.90;;
22963;SDS011;11648;49.306;6.934;2023-07-20T10:29:47;2.20;;;0.70;;
22963;SDS011;11648;49.306;6.934;2023-07-20T10:32:15;2.45;;;0.98;;
22963;SDS011;11648;49.306;6.934;2023-07-20T10:34:42;2.47;;;0.90;;
22963;SDS011;11648;49.306;6.934;2023-07-20T10:37:08;2.13;;;1.08;;
22963;SDS011;11648;49.306;6.934;2023-07-20T10:39:35;3.03;;;0.98;;
22963;SDS011;11648;49.306;6.934;2023-07-20T10:42:09;2.55;;;1.00;;
22963;SDS011;11648;49.306;6.934;2023-07-20T10:44:37;2.53;;;0.98;;
22963;SDS011;11648;49.306;6.934;2023-07-20T10:47:11;2.92;;;1.10;;
22963;SDS011;11648;49.306;6.934;2023-07-20T10:49:58;4.03;;;1.25;;
22963;SDS011;11648;49.306;6.934;2023-07-20T10:52:36;4.43;;;0.93;;
22963;SDS011;11648;49.306;6.934;2023-07-20T10:55:10;2.25;;;1.00;;
22963;SDS011;11648;49.306;6.934;2023-07-20T10:57:38;2.67;;;0.90;;
22963;SDS011;11648;49.306;6.934;2023-07-20T11:00:18;1.55;;;0.70;;
22963;SDS011;11648;49.306;6.934;2023-07-20T11:02:49;3.15;;;0.98;;
22963;SDS011;11648;49.306;6.934;2023-07-20T11:08:10;1.80;;;0.68;;
22963;SDS011;11648;49.306;6.934;2023-07-20T11:10:38;4.28;;;1.02;;
22963;SDS011;11648;49.306;6.934;2023-07-20T11:16:01;2.42;;;1.00;;
22963;SDS011;11648;49.306;6.934;2023-07-20T11:18:33;2.30;;;0.73;;
22963;SDS011;11648;49.306;6.934;2023-07-20T11:21:00;2.35;;;0.75;;
22963;SDS011;11648;49.306;6.934;2023-07-20T11:23:27;2.08;;;0.80;;
22963;SDS011;11648;49.306;6.934;2023-07-20T11:25:55;1.73;;;0.80;;
22963;SDS011;11648;49.306;6.934;2023-07-20T11:28:22;2.95;;;0.60;;
22963;SDS011;11648;49.306;6.934;2023-07-20T11:30:52;1.38;;;0.70;;
22963;SDS011;11648;49.306;6.934;2023-07-20T11:33:21;5.28;;;0.80;;
22963;SDS011;11648;49.306;6.934;2023-07-20T11:35:48;2.53;;;0.90;;
22963;SDS011;11648;49.306;6.934;2023-07-20T11:38:17;2.25;;;0.90;;
22963;SDS011;11648;49.306;6.934;2023-07-20T11:40:44;2.40;;;0.80;;
22963;SDS011;11648;49.306;6.934;2023-07-20T11:43:12;1.98;;;0.90;;
22963;SDS011;11648;49.306;6.934;2023-07-20T11:45:42;2.47;;;1.00;;
22963;SDS011;11648;49.306;6.934;2023-07-20T11:48:16;1.60;;;0.90;;
22963;SDS011;11648;49.306;6.934;2023-07-20T11:50:43;2.65;;;0.90;;
22963;SDS011;11648;49.306;6.934;2023-07-20T11:53:11;2.45;;;1.00;;
22963;SDS011;11648;49.306;6.934;2023-07-20T11:55:39;1.90;;;1.00;;
22963;SDS011;11648;49.306;6.934;2023-07-20T11:58:08;1.70;;;0.80;;
22963;SDS011;11648;49.306;6.934;2023-07-20T12:00:36;3.40;;;1.05;;
22963;SDS011;11648;49.306;6.934;2023-07-20T12:03:06;2.83;;;0.90;;
22963;SDS011;11648;49.306;6.934;2023-07-20T12:05:39;2.97;;;0.95;;
22963;SDS011;11648;49.306;6.934;2023-07-20T12:08:26;4.30;;;1.23;;
22963;SDS011;11648;49.306;6.934;2023-07-20T12:10:53;1.42;;;0.80;;
22963;SDS011;11648;49.306;6.934;2023-07-20T12:13:20;1.77;;;0.75;;
22963;SDS011;11648;49.306;6.934;2023-07-20T12:15:47;2.03;;;1.02;;
22963;SDS011;11648;49.306;6.934;2023-07-20T12:18:13;2.45;;;1.08;;
22963;SDS011;11648;49.306;6.934;2023-07-20T12:20:40;2.42;;;0.90;;
22963;SDS011;11648;49.306;6.934;2023-07-20T12:23:11;2.33;;;0.85;;
22963;SDS011;11648;49.306;6.934;2023-07-20T12:25:43;1.92;;;1.02;;
22963;SDS011;11648;49.306;6.934;2023-07-20T12:30:39;1.73;;;0.90;;
22963;SDS011;11648;49.306;6.934;2023-07-20T12:33:06;2.15;;;0.90;;
22963;SDS011;11648;49.306;6.934;2023-07-20T12:35:33;1.58;;;0.93;;
22963;SDS011;11648;49.306;6.934;2023-07-20T12:38:00;2.17;;;1.08;;
22963;SDS011;11648;49.306;6.934;2023-07-20T12:40:27;1.70;;;0.90;;
22963;SDS011;11648;49.306;6.934;2023-07-20T12:42:54;2.65;;;1.15;;
22963;SDS011;11648;49.306;6.934;2023-07-20T12:45:21;2.15;;;0.80;;
22963;SDS011;11648;49.306;6.934;2023-07-20T12:47:48;3.05;;;0.80;;
22963;SDS011;11648;49.306;6.934;2023-07-20T12:50:15;1.92;;;1.00;;
22963;SDS011;11648;49.306;6.934;2023-07-20T12:52:42;2.67;;;1.10;;
22963;SDS011;11648;49.306;6.934;2023-07-20T12:55:09;1.70;;;0.90;;
22963;SDS011;11648;49.306;6.934;2023-07-20T12:57:36;2.53;;;1.00;;
22963;SDS011;11648;49.306;6.934;2023-07-20T13:00:04;2.78;;;1.10;;
22963;SDS011;11648;49.306;6.934;2023-07-20T13:02:34;3.33;;;0.80;;
22963;SDS011;11648;49.306;6.934;2023-07-20T13:05:02;2.13;;;1.08;;
22963;SDS011;11648;49.306;6.934;2023-07-20T13:07:33;1.73;;;0.95;;
22963;SDS011;11648;49.306;6.934;2023-07-20T13:10:05;2.80;;;1.10;;
22963;SDS011;11648;49.306;6.934;2023-07-20T13:12:33;2.25;;;1.00;;
22963;SDS011;11648;49.306;6.934;2023-07-20T13:15:02;2.55;;;1.10;;
22963;SDS011;11648;49.306;6.934;2023-07-20T13:17:33;2.45;;;0.90;;
22963;SDS011;11648;49.306;6.934;2023-07-20T13:20:00;2.15;;;1.00;;
22963;SDS011;11648;49.306;6.934;2023-07-20T13:22:27;3.00;;;1.00;;
22963;SDS011;11648;49.306;6.934;2023-07-20T13:24:54;3.03;;;0.93;;
22963;SDS011;11648;49.306;6.934;2023-07-20T13:27:21;1.63;;;0.88;;
22963;SDS011;11648;49.306;6.934;2023-07-20T13:29:47;3.00;;;1.10;;
22963;SDS011;11648;49.306;6.934;2023-07-20T13:32:14;3.38;;;0.98;;
22963;SDS011;11648;49.306;6.934;2023-07-20T13:34:42;1.33;;;0.70;;
22963;SDS011;11648;49.306;6.934;2023-07-20T13:37:14;2.92;;;0.80;;
22963;SDS011;11648;49.306;6.934;2023-07-20T13:39:42;2.65;;;1.10;;
22963;SDS011;11648;49.306;6.934;2023-07-20T13:42:10;2.15;;;0.90;;
22963;SDS011;11648;49.306;6.934;2023-07-20T13:44:38;1.77;;;0.65;;
22963;SDS011;11648;49.306;6.934;2023-07-20T13:47:05;1.38;;;0.85;;
22963;SDS011;11648;49.306;6.934;2023-07-20T13:49:35;2.65;;;0.90;;
22963;SDS011;11648;49.306;6.934;2023-07-20T13:52:12;2.22;;;0.70;;
22963;SDS011;11648;49.306;6.934;2023-07-20T13:54:42;1.80;;;0.80;;
22963;SDS011;11648;49.306;6.934;2023-07-20T13:57:11;3.50;;;1.13;;
22963;SDS011;11648;49.306;6.934;2023-07-20T13:59:38;2.45;;;0.80;;
22963;SDS011;11648;49.306;6.934;2023-07-20T14:02:05;2.35;;;0.90;;
22963;SDS011;11648;49.306;6.934;2023-07-20T14:04:34;1.80;;;0.70;;
22963;SDS011;11648;49.306;6.934;2023-07-20T14:07:02;2.08;;;0.90;;
22963;SDS011;11648;49.306;6.934;2023-07-20T14:09:29;3.80;;;1.00;;
22963;SDS011;11648;49.306;6.934;2023-07-20T14:11:56;1.65;;;0.85;;
22963;SDS011;11648;49.306;6.934;2023-07-20T14:14:25;3.28;;;0.70;;
22963;SDS011;11648;49.306;6.934;2023-07-20T14:16:52;2.33;;;0.93;;
22963;SDS011;11648;49.306;6.934;2023-07-20T14:19:19;2.33;;;0.93;;
22963;SDS011;11648;49.306;6.934;2023-07-20T14:21:46;2.20;;;1.00;;
22963;SDS011;11648;49.306;6.934;2023-07-20T14:24:13;1.63;;;0.93;;
22963;SDS011;11648;49.306;6.934;2023-07-20T14:26:40;2.67;;;1.10;;
22963;SDS011;11648;49.306;6.934;2023-07-20T14:29:09;4.60;;;1.10;;
22963;SDS011;11648;49.306;6.934;2023-07-20T14:31:36;2.08;;;0.80;;
22963;SDS011;11648;49.306;6.934;2023-07-20T14:34:04;4.50;;;0.93;;
22963;SDS011;11648;49.306;6.934;2023-07-20T14:36:30;1.77;;;0.82;;
22963;SDS011;11648;49.306;6.934;2023-07-20T14:39:00;2.00;;;0.98;;
22963;SDS011;11648;49.306;6.934;2023-07-20T14:41:27;1.95;;;0.98;;
22963;SDS011;11648;49.306;6.934;2023-07-20T14:43:54;1.95;;;0.82;;
22963;SDS011;11648;49.306;6.934;2023-07-20T14:46:20;2.15;;;0.98;;
22963;SDS011;11648;49.306;6.934;2023-07-20T14:48:47;3.35;;;1.05;;
22963;SDS011;11648;49.306;6.934;2023-07-20T14:51:14;2.03;;;0.90;;
22963;SDS011;11648;49.306;6.934;2023-07-20T14:53:41;1.40;;;0.70;;
22963;SDS011;11648;49.306;6.934;2023-07-20T14:56:08;1.83;;;0.90;;
22963;SDS011;11648;49.306;6.934;2023-07-20T14:58:35;1.30;;;0.85;;
22963;SDS011;11648;49.306;6.934;2023-07-20T15:01:02;2.30;;;0.80;;
22963;SDS011;11648;49.306;6.934;2023-07-20T15:03:30;1.50;;;0.80;;
22963;SDS011;11648;49.306;6.934;2023-07-20T15:06:00;2.65;;;1.00;;
22963;SDS011;11648;49.306;6.934;2023-07-20T15:08:27;2.95;;;0.90;;
22963;SDS011;11648;49.306;6.934;2023-07-20T15:10:54;2.17;;;0.98;;